Terminal Aerodrome Forecast
Issued by NWS Wichita, KS

Home | Current Version | Previous Version | Graphics & Text | Print | Product List | Glossary On
Versions: 1 2 3 4 5 6 7 8 9 10 11 12 13 14 15 16 17
332
FTUS43 KICT 200522
TAFICT
TAF
KICT 200522Z 2006/2106 17012KT P6SM BKN250
     FM201300 17012KT P6SM SCT008 BKN250
     FM201600 17013KT P6SM BKN014
     FM210000 14009KT P6SM BKN008=

USA.gov is the U.S. government's official web portal to all federal, state and local government web resources and services.